Meteo Giornale » Osservazioni meteo Stati Uniti (USA) » Pocatello
ore: 09:53 - Osservazioni Meteo Pocatello
Lat. 42° 55' N Lon. 112° 34' W Alt. 1356 metri s.l.m.
16 °C
Sereno
Temp. 24 Ore
3 °C
24 °C
Nord/Nord-Est
13 Km/h
Dew point 1 °C
Umidità 36 %
Visibilità 10 Km
Il sole sorge alle ore 06:54
Il sole tramonta alle ore 20:06
| Data e Ora | Cielo e Fenomeni | T °C | DP °C | Um. % | Pres. hPa | Vis. km | Vento km/h | |
|---|---|---|---|---|---|---|---|---|
| Oggi h: 09:53 | Sereno | 16 | 1 | 36 | 1019 | 10 | N/NE 13 | |
| Oggi h: 08:53 | Sereno | 14 | -2 | 32 | 1020 | 10 | E 11.1 | |
| Oggi h: 07:53 | Sereno | 9 | -1 | 49 | 1020 | 10 | E/NE 7.4 | |
| Oggi h: 06:53 | Sereno | 4 | 0 | 75 | 1019 | 10 | N 0 | |
| Oggi h: 05:53 | Sereno | 3 | -1 | 74 | 1019 | 10 | E/NE 7.4 | |
| Oggi h: 04:53 | Sereno | 8 | 0 | 56 | 1019 | 10 | N 9.3 | |
| Oggi h: 03:53 | Sereno | 8 | 0 | 56 | 1019 | 10 | N 5.5 | |
| Oggi h: 02:53 | Sereno | 9 | -1 | 49 | 1019 | 10 | N 0 | |
| Oggi h: 01:53 | Sereno | 13 | -3 | 32 | 1018 | 10 | SE 7.4 | |
| Oggi h: 00:53 | Sereno | 13 | -4 | 30 | 1018 | 10 | S 9.3 | |
| Ieri h: 23:53 | Sereno | 13 | -4 | 30 | 1018 | 10 | S/SO 13 | |
| Ieri h: 22:53 | Sereno | 16 | -4 | 24 | 1018 | 10 | S/SO 18.5 | |
| Ieri h: 21:53 | Sereno | 17 | -4 | 23 | 1018 | 10 | S/SO 22.2 | |
| Ieri h: 20:53 | Sereno | 16 | -3 | 26 | 1017 | 10 | S/SO 16.7 | |
| Ieri h: 19:53 | Sereno | 19 | -4 | 20 | 1017 | 10 | SO 24 | |
| Ieri h: 18:53 | Sereno | 22 | -6 | 14 | 1017 | 10 | O/SO 27.8 | |
| Ieri h: 17:53 | Sereno | 23 | -2 | 18 | 1017 | 10 | O/SO 31.5 | |
| Ieri h: 16:53 | Sereno | 24 | -2 | 17 | 1017 | 10 | O/SO 37 | |
| Ieri h: 15:53 | Sereno | 24 | -2 | 17 | 1018 | 10 | O/SO 35.2 | |
| Ieri h: 14:53 | Sereno | 23 | -3 | 17 | 1019 | 10 | O/SO 27.8 | |
| Ieri h: 13:53 | Sereno | 22 | -2 | 19 | 1019 | 10 | O/SO 37 | |
| Ieri h: 12:53 | Sereno | 21 | 0 | 24 | 1019 | 10 | O/SO 35.2 | |
| Ieri h: 11:53 | Sereno | 19 | 0 | 27 | 1019 | 10 | O/SO 31.5 | |
| Ieri h: 10:53 | Sereno | 18 | 2 | 34 | 1019 | 10 | SO 35.2 | |



